Time;durP1;ratioP1;P1;durP2;ratioP2;P2;SDS_P1;SDS_P2;PMS_P1;PMS_P2;Temp;Humidity;BMP_temperature;BMP_pressure;BME280_temperature;BME280_humidity;BME280_pressure;Samples;Min_cycle;Max_cycle;Signal;HPM_P1;HPM_P2
2023/01/16 00:01:32;;;;;;;1.60;0.75;;;1.70;99.90;;;;;;5048346;28;20067;-77
2023/01/16 00:03:58;;;;;;;1.35;0.52;;;1.70;99.90;;;;;;5066271;28;20033;-76
2023/01/16 00:06:24;;;;;;;1.75;0.60;;;1.70;99.90;;;;;;5068054;28;20024;-75
2023/01/16 00:08:50;;;;;;;1.77;0.80;;;1.70;99.90;;;;;;5068711;28;20097;-77
2023/01/16 00:11:17;;;;;;;2.03;0.98;;;1.70;99.90;;;;;;5037690;28;20028;-77
2023/01/16 00:13:43;;;;;;;1.35;0.65;;;1.70;99.90;;;;;;5069490;28;20033;-76
2023/01/16 00:16:08;;;;;;;1.05;0.70;;;1.70;99.90;;;;;;5059383;28;20051;-75
2023/01/16 00:18:34;;;;;;;2.72;0.63;;;1.70;99.90;;;;;;5063698;28;20071;-75
2023/01/16 00:21:01;;;;;;;1.58;0.88;;;1.80;99.90;;;;;;5066254;28;20086;-75
2023/01/16 00:23:27;;;;;;;0.70;0.70;;;1.80;99.90;;;;;;5067943;28;20025;-76
2023/01/16 00:25:53;;;;;;;3.15;0.80;;;1.80;99.90;;;;;;5054131;28;20431;-76
2023/01/16 00:28:20;;;;;;;2.58;0.88;;;1.90;99.90;;;;;;5040185;28;20033;-75
2023/01/16 00:30:46;;;;;;;1.40;0.60;;;1.80;99.90;;;;;;5048410;28;20039;-76
2023/01/16 00:33:11;;;;;;;2.33;0.70;;;1.80;99.90;;;;;;5043977;28;20029;-75
2023/01/16 00:35:37;;;;;;;1.33;0.73;;;1.80;99.90;;;;;;5030991;28;20059;-76
2023/01/16 00:38:04;;;;;;;5.40;1.15;;;1.90;99.90;;;;;;5034998;28;20048;-76
2023/01/16 00:40:29;;;;;;;2.28;0.68;;;1.90;99.90;;;;;;5069353;28;20036;-75
2023/01/16 00:42:55;;;;;;;1.20;0.60;;;1.80;99.90;;;;;;5058328;28;20072;-76
2023/01/16 00:45:22;;;;;;;2.97;0.70;;;1.80;99.90;;;;;;5036270;28;20115;-76
2023/01/16 00:47:47;;;;;;;1.92;0.70;;;1.80;99.90;;;;;;5064379;28;20091;-74
2023/01/16 00:50:14;;;;;;;0.90;0.50;;;1.80;99.90;;;;;;5068156;28;20028;-76
2023/01/16 00:52:41;;;;;;;0.82;0.60;;;1.80;99.90;;;;;;5067708;28;20091;-75
2023/01/16 00:55:07;;;;;;;1.42;0.70;;;1.80;99.90;;;;;;5054756;28;20473;-75
2023/01/16 00:57:33;;;;;;;2.40;0.85;;;1.90;99.90;;;;;;5053087;28;20033;-75
2023/01/16 00:59:58;;;;;;;1.10;0.60;;;1.90;99.90;;;;;;5053269;28;20036;-75
2023/01/16 01:02:24;;;;;;;3.75;0.55;;;1.90;99.90;;;;;;5051336;28;20668;-75
2023/01/16 01:04:51;;;;;;;2.28;0.52;;;2.00;99.90;;;;;;5055763;28;20477;-76
2023/01/16 01:07:17;;;;;;;2.55;0.80;;;2.00;99.90;;;;;;5057252;28;20032;-75
2023/01/16 01:09:43;;;;;;;6.90;0.80;;;2.00;99.90;;;;;;5068683;28;20029;-75
2023/01/16 01:12:09;;;;;;;2.60;0.90;;;2.00;99.90;;;;;;5070336;28;20075;-76
2023/01/16 01:14:34;;;;;;;1.13;0.63;;;1.90;99.90;;;;;;5043671;28;20500;-76
2023/01/16 01:17:00;;;;;;;1.75;0.60;;;1.90;99.90;;;;;;5071556;28;20043;-76
2023/01/16 01:19:27;;;;;;;2.67;0.65;;;1.90;99.90;;;;;;5071063;28;20029;-77
2023/01/16 01:21:52;;;;;;;3.17;0.80;;;2.00;99.90;;;;;;5071179;28;20078;-77
2023/01/16 01:24:19;;;;;;;3.13;0.70;;;1.90;99.90;;;;;;5070318;28;20071;-77
2023/01/16 01:26:46;;;;;;;2.42;0.68;;;1.90;99.90;;;;;;5070609;28;20112;-77
2023/01/16 01:29:12;;;;;;;4.57;0.77;;;1.90;99.90;;;;;;5078017;28;20036;-77
2023/01/16 01:31:37;;;;;;;3.05;0.90;;;1.90;99.90;;;;;;5070545;28;20024;-77
2023/01/16 01:34:03;;;;;;;1.33;0.63;;;1.80;99.90;;;;;;5070149;28;20035;-77
2023/01/16 01:36:29;;;;;;;0.93;0.57;;;1.80;99.90;;;;;;5060030;28;20446;-77
2023/01/16 01:38:54;;;;;;;1.63;0.55;;;1.80;99.90;;;;;;5049531;28;20028;-77
2023/01/16 01:41:20;;;;;;;4.00;0.68;;;1.80;99.90;;;;;;5070541;28;20119;-76
2023/01/16 01:43:54;;;;;;;2.10;0.80;;;1.80;99.90;;;;;;5070141;28;20143;-76
2023/01/16 01:46:45;;;;;;;4.63;0.80;;;1.70;99.90;;;;;;5066101;28;20031;-77
2023/01/16 01:49:16;;;;;;;1.50;0.50;;;1.70;99.90;;;;;;5069425;28;20036;-76
2023/01/16 01:51:42;;;;;;;3.58;0.70;;;1.70;99.90;;;;;;5070349;28;20048;-76
2023/01/16 01:54:17;;;;;;;0.75;0.60;;;1.80;99.90;;;;;;5052351;28;20729;-76
2023/01/16 01:56:51;;;;;;;1.88;0.80;;;1.70;99.90;;;;;;5070225;28;20047;-77
2023/01/16 01:59:36;;;;;;;2.22;0.50;;;1.70;99.90;;;;;;5061674;28;20370;-76
2023/01/16 02:02:05;;;;;;;4.00;0.90;;;1.70;99.90;;;;;;5049207;28;20056;-76
2023/01/16 02:04:35;;;;;;;1.23;0.45;;;1.60;99.90;;;;;;5063966;28;20067;-76
2023/01/16 02:07:05;;;;;;;0.95;0.55;;;1.60;99.90;;;;;;5047591;28;20017;-76
2023/01/16 02:09:32;;;;;;;3.42;0.82;;;1.50;99.90;;;;;;5051813;28;20451;-76
2023/01/16 02:12:06;;;;;;;2.63;0.52;;;1.60;99.90;;;;;;5069536;28;20056;-76
2023/01/16 02:14:35;;;;;;;;;;;1.50;99.90;;;;;;5070224;28;20032;-76
2023/01/16 02:20:09;;;;;;;2.83;0.50;;;1.50;99.90;;;;;;5066450;28;20039;-76
2023/01/16 02:23:03;;;;;;;3.13;0.57;;;1.40;99.90;;;;;;5063381;28;20028;-75
2023/01/16 02:26:06;;;;;;;2.70;0.52;;;1.50;99.90;;;;;;5068185;28;20032;-75
2023/01/16 02:28:51;;;;;;;1.45;0.45;;;1.50;99.90;;;;;;5070548;28;20471;-76
2023/01/16 02:31:44;;;;;;;0.77;0.40;;;1.40;99.90;;;;;;5079752;28;20020;-76
2023/01/16 02:34:20;;;;;;;2.92;0.60;;;1.40;99.90;;;;;;5065640;28;20266;-75
2023/01/16 02:37:24;;;;;;;0.95;0.38;;;1.30;99.90;;;;;;5055419;28;20603;-76
2023/01/16 02:40:11;;;;;;;4.28;0.57;;;1.30;99.90;;;;;;5016000;28;20054;-76
2023/01/16 02:42:58;;;;;;;1.50;0.47;;;1.30;99.90;;;;;;5073941;28;20034;-76
2023/01/16 02:45:37;;;;;;;0.60;0.55;;;1.30;99.90;;;;;;5054914;28;20024;-76
2023/01/16 02:48:14;;;;;;;0.70;0.47;;;1.30;99.90;;;;;;5054253;28;20041;-76
2023/01/16 02:50:49;;;;;;;1.27;0.77;;;1.40;99.90;;;;;;5055890;28;20159;-76
2023/01/16 02:53:43;;;;;;;3.38;0.82;;;1.50;99.90;;;;;;5064194;28;20036;-76
2023/01/16 02:56:14;;;;;;;1.33;0.60;;;1.60;99.90;;;;;;5069382;28;20082;-77
2023/01/16 02:58:46;;;;;;;1.67;0.85;;;1.60;99.90;;;;;;5065328;28;20036;-76
2023/01/16 03:01:13;;;;;;;0.85;0.50;;;1.60;99.90;;;;;;5069837;28;20033;-76
2023/01/16 03:03:54;;;;;;;3.70;0.80;;;1.70;99.90;;;;;;5069225;28;20029;-76
2023/01/16 03:06:20;;;;;;;2.92;0.55;;;1.80;99.90;;;;;;5067806;28;20025;-76
2023/01/16 03:09:04;;;;;;;1.98;0.70;;;1.80;99.90;;;;;;5069257;28;20020;-75
2023/01/16 03:11:40;;;;;;;1.38;0.80;;;1.90;99.90;;;;;;5069422;28;20044;-76
2023/01/16 03:14:12;;;;;;;2.95;0.60;;;1.80;99.90;;;;;;5069228;28;20032;-75
2023/01/16 03:17:11;;;;;;;3.28;0.60;;;1.80;99.90;;;;;;5068193;28;20035;-75
2023/01/16 03:19:55;;;;;;;1.05;0.70;;;1.80;99.90;;;;;;5065950;28;20036;-75
2023/01/16 03:22:24;;;;;;;5.47;0.85;;;1.80;99.90;;;;;;5041741;28;20044;-75
2023/01/16 03:25:01;;;;;;;3.30;0.80;;;1.90;99.90;;;;;;5062954;28;20535;-75
2023/01/16 03:27:49;;;;;;;7.20;1.08;;;1.90;99.90;;;;;;5050823;28;20035;-76
2023/01/16 03:30:34;;;;;;;3.38;0.60;;;1.90;99.90;;;;;;5068304;28;20039;-75
2023/01/16 03:33:25;;;;;;;2.40;0.70;;;1.90;99.90;;;;;;5066138;28;20077;-77
2023/01/16 03:36:08;;;;;;;1.45;0.40;;;1.80;99.90;;;;;;5065724;28;20033;-76
2023/01/16 03:38:36;;;;;;;3.05;0.60;;;1.80;99.90;;;;;;5069402;28;20036;-76
2023/01/16 03:41:06;;;;;;;2.35;0.70;;;1.90;99.90;;;;;;5060916;28;20621;-76
2023/01/16 03:43:37;;;;;;;0.52;0.32;;;1.90;99.90;;;;;;5052179;28;20541;-75
2023/01/16 03:46:18;;;;;;;3.75;0.70;;;1.90;99.90;;;;;;5044925;28;20078;-76
2023/01/16 03:48:58;;;;;;;3.83;0.60;;;1.90;99.90;;;;;;5067479;28;20055;-76
2023/01/16 03:51:28;;;;;;;1.90;0.52;;;1.90;99.90;;;;;;5043458;28;20047;-76
2023/01/16 03:54:06;;;;;;;2.33;0.40;;;1.90;99.90;;;;;;5068078;28;20028;-76
2023/01/16 03:56:35;;;;;;;3.03;0.60;;;1.90;99.90;;;;;;5068046;28;20036;-75
2023/01/16 03:59:02;;;;;;;3.50;0.55;;;2.00;99.90;;;;;;5065823;28;20025;-76
2023/01/16 04:01:28;;;;;;;1.42;0.47;;;2.00;99.90;;;;;;5068257;28;20060;-76
2023/01/16 04:04:01;;;;;;;3.72;0.70;;;2.00;99.90;;;;;;5053088;28;20025;-75
2023/01/16 04:06:35;;;;;;;2.92;0.70;;;2.00;99.90;;;;;;5065489;28;20055;-75
2023/01/16 04:09:06;;;;;;;1.35;0.73;;;2.00;99.90;;;;;;5065950;28;20032;-76
2023/01/16 04:11:36;;;;;;;1.58;0.50;;;1.90;99.90;;;;;;5067709;28;20023;-75
2023/01/16 04:14:04;;;;;;;6.30;1.08;;;1.90;99.90;;;;;;5064989;28;20020;-76
2023/01/16 04:16:32;;;;;;;0.85;0.40;;;1.90;99.90;;;;;;5061482;28;20037;-75
2023/01/16 04:19:01;;;;;;;0.98;0.60;;;1.90;99.90;;;;;;5049822;28;20025;-76
2023/01/16 04:21:28;;;;;;;2.90;0.60;;;1.90;99.90;;;;;;5064261;28;20520;-75
2023/01/16 04:23:56;;;;;;;1.35;0.57;;;1.90;99.90;;;;;;5067358;28;20170;-76
2023/01/16 04:26:22;;;;;;;2.13;0.47;;;1.80;99.90;;;;;;5057208;28;20021;-75
2023/01/16 04:28:53;;;;;;;1.77;0.55;;;1.80;99.90;;;;;;5068142;28;20413;-75
2023/01/16 04:31:19;;;;;;;4.55;0.98;;;1.80;99.90;;;;;;5041621;28;20580;-75
2023/01/16 04:33:45;;;;;;;3.15;0.70;;;1.80;99.90;;;;;;5057540;28;20672;-75
2023/01/16 04:36:11;;;;;;;2.97;0.70;;;1.70;99.90;;;;;;5056909;28;20044;-75
2023/01/16 04:38:36;;;;;;;3.97;0.73;;;1.70;99.90;;;;;;5060459;28;20056;-75
2023/01/16 04:41:03;;;;;;;1.05;0.47;;;1.70;99.90;;;;;;5053221;28;20036;-74
2023/01/16 04:43:29;;;;;;;3.10;0.60;;;1.70;99.90;;;;;;5060931;28;20460;-75
2023/01/16 04:45:55;;;;;;;1.88;0.75;;;1.60;99.90;;;;;;5034130;28;20573;-75
2023/01/16 04:48:22;;;;;;;4.55;0.65;;;1.60;99.90;;;;;;5068651;28;20029;-74
2023/01/16 04:50:49;;;;;;;1.40;0.45;;;1.50;99.90;;;;;;5072035;28;20025;-75
2023/01/16 04:53:15;;;;;;;1.75;0.60;;;1.40;99.90;;;;;;5049822;28;20056;-75
2023/01/16 04:55:41;;;;;;;1.23;0.50;;;1.30;99.90;;;;;;5071727;28;20033;-76
2023/01/16 04:58:07;;;;;;;3.13;0.50;;;1.30;99.90;;;;;;5071653;28;20067;-75
2023/01/16 05:00:33;;;;;;;2.28;0.40;;;1.20;99.90;;;;;;5070772;28;20055;-75
2023/01/16 05:02:59;;;;;;;2.00;0.52;;;1.20;99.90;;;;;;5068271;28;20036;-75
2023/01/16 05:05:25;;;;;;;6.80;0.88;;;1.20;99.90;;;;;;5051300;28;20091;-75
2023/01/16 05:08:15;;;;;;;5.35;0.68;;;1.10;99.90;;;;;;5068007;28;20033;-76
2023/01/16 05:10:37;;;;;;;2.13;0.43;;;1.10;99.90;;;;;;5052358;28;20504;-76
2023/01/16 05:13:03;;;;;;;3.55;0.45;;;1.10;99.90;;;;;;5062584;28;20117;-76
2023/01/16 05:15:28;;;;;;;9.07;1.02;;;1.20;99.90;;;;;;5057983;28;20169;-75
2023/01/16 05:17:55;;;;;;;4.05;0.63;;;1.20;99.90;;;;;;5046484;28;20033;-75
2023/01/16 05:20:21;;;;;;;1.83;0.60;;;1.20;99.90;;;;;;5050137;28;20115;-75
2023/01/16 05:22:47;;;;;;;5.38;0.70;;;1.20;99.90;;;;;;5065740;28;20502;-76
2023/01/16 05:25:13;;;;;;;5.38;0.70;;;1.30;99.90;;;;;;5066558;28;20107;-75
2023/01/16 05:27:40;;;;;;;3.92;1.38;;;1.30;99.90;;;;;;5061530;28;20028;-75
2023/01/16 05:30:06;;;;;;;4.43;1.88;;;1.30;99.90;;;;;;5066905;28;20053;-75
2023/01/16 05:32:32;;;;;;;2.17;1.15;;;1.30;99.90;;;;;;5068932;28;20435;-75
2023/01/16 05:35:01;;;;;;;2.05;1.00;;;1.30;99.90;;;;;;5046446;28;20052;-75
2023/01/16 05:37:28;;;;;;;6.97;2.30;;;1.40;99.90;;;;;;5070678;28;20032;-75
2023/01/16 05:39:56;;;;;;;1.80;0.68;;;1.40;99.90;;;;;;5055002;28;20409;-76
2023/01/16 05:42:24;;;;;;;4.13;1.52;;;1.40;99.90;;;;;;5067702;28;20029;-75
2023/01/16 05:44:51;;;;;;;0.82;0.60;;;1.40;99.90;;;;;;5065891;28;20040;-75
2023/01/16 05:47:18;;;;;;;2.22;0.38;;;1.40;99.90;;;;;;5048159;28;20485;-75
2023/01/16 05:49:44;;;;;;;1.42;0.47;;;1.40;99.90;;;;;;5050390;28;20029;-75
2023/01/16 05:52:10;;;;;;;0.93;0.57;;;1.40;99.90;;;;;;5067892;28;20028;-76
2023/01/16 05:54:36;;;;;;;2.78;0.80;;;1.40;99.90;;;;;;5061659;28;20039;-76
2023/01/16 05:57:02;;;;;;;4.18;0.65;;;1.40;99.90;;;;;;5030569;28;20086;-76
2023/01/16 05:59:28;;;;;;;4.00;0.57;;;1.50;99.90;;;;;;5051485;28;20397;-76
2023/01/16 06:01:56;;;;;;;3.22;0.60;;;1.50;99.90;;;;;;5071692;28;20024;-75
2023/01/16 06:04:23;;;;;;;2.53;0.85;;;1.50;99.90;;;;;;5070133;28;20025;-76
2023/01/16 06:06:48;;;;;;;2.55;0.63;;;1.40;99.90;;;;;;5062385;28;20627;-76
2023/01/16 06:09:14;;;;;;;3.42;0.45;;;1.40;99.90;;;;;;5071561;28;20082;-77
2023/01/16 06:11:40;;;;;;;2.10;0.73;;;1.40;99.90;;;;;;5071321;28;20666;-76
2023/01/16 06:14:07;;;;;;;3.45;0.60;;;1.50;99.90;;;;;;5070321;28;20135;-77
2023/01/16 06:16:34;;;;;;;1.85;0.68;;;1.40;99.90;;;;;;5070236;28;20139;-76
2023/01/16 06:19:00;;;;;;;2.22;0.68;;;1.40;99.90;;;;;;5075001;28;20098;-76
2023/01/16 06:21:26;;;;;;;0.80;0.55;;;1.40;99.90;;;;;;5064127;28;20346;-77
2023/01/16 06:23:52;;;;;;;1.23;0.63;;;1.40;99.90;;;;;;5070060;28;20029;-77
2023/01/16 06:26:19;;;;;;;1.50;0.82;;;1.40;99.90;;;;;;5069905;28;20067;-76
2023/01/16 06:28:46;;;;;;;1.20;0.70;;;1.40;99.90;;;;;;5070890;28;20082;-76
2023/01/16 06:31:12;;;;;;;1.00;0.50;;;1.30;99.90;;;;;;5044936;28;20032;-77
2023/01/16 06:33:38;;;;;;;5.32;0.50;;;1.30;99.90;;;;;;5044719;28;20028;-76
2023/01/16 06:36:04;;;;;;;1.33;0.70;;;1.30;99.90;;;;;;5069275;28;20068;-77
2023/01/16 06:38:30;;;;;;;3.47;0.73;;;1.30;99.90;;;;;;5059613;28;20039;-77
2023/01/16 06:40:56;;;;;;;2.58;0.70;;;1.20;99.90;;;;;;5069292;28;20418;-76
2023/01/16 06:43:24;;;;;;;2.20;0.82;;;1.20;99.90;;;;;;5069082;28;20481;-76
2023/01/16 06:45:50;;;;;;;2.30;0.77;;;1.20;99.90;;;;;;5055254;28;20037;-76
2023/01/16 06:48:16;;;;;;;4.03;1.00;;;1.20;99.90;;;;;;5062604;28;20079;-76
2023/01/16 06:50:42;;;;;;;4.05;0.93;;;1.20;99.90;;;;;;5066249;28;20025;-77
2023/01/16 06:53:07;;;;;;;3.38;0.90;;;1.10;99.90;;;;;;5048540;28;20036;-76
2023/01/16 06:55:33;;;;;;;2.33;1.00;;;1.10;99.90;;;;;;5066460;28;20044;-77
2023/01/16 06:57:59;;;;;;;1.77;0.80;;;1.10;99.90;;;;;;5053705;28;20036;-77
2023/01/16 07:00:25;;;;;;;2.25;0.60;;;1.00;99.90;;;;;;5026484;28;20055;-78
2023/01/16 07:02:56;;;;;;;1.48;0.70;;;0.90;99.90;;;;;;5048693;28;20035;-76
2023/01/16 07:05:23;;;;;;;4.00;0.82;;;0.90;99.90;;;;;;5068177;28;20022;-75
2023/01/16 07:07:49;;;;;;;3.10;0.70;;;0.90;99.90;;;;;;5042555;28;20142;-76
2023/01/16 07:10:16;;;;;;;2.08;0.88;;;0.80;99.90;;;;;;5061245;28;20170;-76
2023/01/16 07:12:42;;;;;;;1.60;0.90;;;0.80;99.90;;;;;;5066654;28;20062;-76
2023/01/16 07:23:48;;;;;;;5.00;0.95;;;0.70;99.90;;;;;;5006460;28;20033;-76
2023/01/16 07:26:19;;;;;;;4.72;0.80;;;0.60;99.90;;;;;;5036181;28;20046;-76
2023/01/16 07:28:48;;;;;;;4.22;0.93;;;0.60;99.90;;;;;;5050988;28;20033;-77
2023/01/16 07:31:14;;;;;;;1.75;1.00;;;0.50;99.90;;;;;;5065411;28;20370;-76
2023/01/16 07:33:40;;;;;;;3.33;0.70;;;0.50;99.90;;;;;;5064691;28;20032;-77
2023/01/16 07:36:07;;;;;;;4.60;0.80;;;0.50;99.90;;;;;;5048230;28;20037;-77
2023/01/16 07:38:32;;;;;;;1.33;0.63;;;0.40;99.90;;;;;;5065743;28;20073;-77
2023/01/16 07:40:58;;;;;;;3.90;1.10;;;0.40;99.90;;;;;;5066955;28;20024;-77
2023/01/16 07:43:24;;;;;;;4.65;0.88;;;0.40;99.90;;;;;;5062753;28;20048;-77
2023/01/16 07:45:52;;;;;;;2.13;0.90;;;0.40;99.90;;;;;;5046275;28;20448;-77
2023/01/16 07:48:22;;;;;;;1.58;0.77;;;0.40;99.90;;;;;;5067935;28;20033;-77
2023/01/16 07:50:53;;;;;;;1.88;0.90;;;0.40;99.90;;;;;;5059933;28;20048;-77
2023/01/16 07:53:22;;;;;;;1.10;0.88;;;0.30;99.90;;;;;;5066691;28;20036;-77
2023/01/16 07:55:53;;;;;;;1.67;0.80;;;0.30;99.90;;;;;;5060448;28;20041;-77
2023/01/16 07:58:20;;;;;;;1.48;0.60;;;0.30;99.90;;;;;;5068652;28;20056;-77
2023/01/16 08:00:47;;;;;;;3.08;0.80;;;0.30;99.90;;;;;;5059799;28;20056;-77
2023/01/16 08:03:14;;;;;;;1.52;0.60;;;0.30;99.90;;;;;;5068129;28;20045;-77
2023/01/16 08:05:43;;;;;;;1.52;0.70;;;0.30;99.90;;;;;;5071767;28;20028;-77
2023/01/16 08:08:28;;;;;;;3.92;0.95;;;0.30;99.90;;;;;;5067477;28;20098;-77
2023/01/16 08:10:55;;;;;;;2.97;0.80;;;0.40;99.90;;;;;;5051381;28;20056;-77
2023/01/16 08:13:21;;;;;;;2.83;0.55;;;0.40;99.90;;;;;;5066978;28;21414;-76
2023/01/16 08:15:47;;;;;;;2.90;0.73;;;0.40;99.90;;;;;;5068086;28;20384;-78
2023/01/16 08:18:14;;;;;;;1.73;0.73;;;0.50;99.90;;;;;;5068250;28;20029;-77
2023/01/16 08:20:42;;;;;;;1.20;0.70;;;0.60;99.90;;;;;;5035930;28;20025;-77
2023/01/16 08:23:08;;;;;;;1.13;0.77;;;0.70;99.90;;;;;;5051402;28;20044;-77
2023/01/16 08:25:52;;;;;;;2.45;0.90;;;0.70;99.90;;;;;;5064899;28;20094;-77
2023/01/16 08:28:18;;;;;;;0.45;0.45;;;0.70;99.90;;;;;;5037540;28;20063;-77
2023/01/16 08:30:44;;;;;;;1.05;0.50;;;0.80;99.90;;;;;;5064530;28;20029;-78
2023/01/16 08:33:09;;;;;;;2.92;0.60;;;0.80;99.90;;;;;;5068326;28;20036;-77
2023/01/16 08:35:57;;;;;;;1.25;0.80;;;0.80;99.90;;;;;;5037967;28;20055;-79
2023/01/16 08:38:23;;;;;;;1.58;0.80;;;0.90;99.90;;;;;;5065263;28;20040;-77
2023/01/16 08:40:49;;;;;;;2.63;0.70;;;0.90;99.90;;;;;;5045567;28;20095;-76
2023/01/16 08:51:30;;;;;;;2.70;0.75;;;1.40;99.90;;;;;;5063974;28;20062;-77
2023/01/16 08:53:57;;;;;;;3.55;0.88;;;1.50;99.90;;;;;;5062463;28;20034;-76
2023/01/16 08:56:24;;;;;;;1.00;0.70;;;1.50;99.90;;;;;;5042804;28;20028;-78
2023/01/16 08:58:50;;;;;;;0.82;0.60;;;1.60;99.90;;;;;;5065351;28;20068;-78
2023/01/16 09:01:16;;;;;;;0.45;0.45;;;1.60;99.90;;;;;;5036203;28;20071;-77
2023/01/16 09:03:43;;;;;;;2.65;0.80;;;1.70;99.90;;;;;;5048895;28;20047;-78
2023/01/16 09:06:09;;;;;;;0.80;0.57;;;1.70;99.90;;;;;;5067434;28;20064;-78
2023/01/16 09:08:35;;;;;;;1.25;0.68;;;1.70;99.90;;;;;;5063124;28;20055;-77
2023/01/16 09:13:51;;;;;;;1.75;0.63;;;1.80;99.90;;;;;;5057401;28;20632;-76
2023/01/16 09:16:22;;;;;;;0.90;0.55;;;1.90;99.90;;;;;;5063244;28;20056;-77
2023/01/16 09:18:48;;;;;;;2.63;0.68;;;1.90;99.90;;;;;;5050271;28;20111;-75
2023/01/16 09:21:14;;;;;;;2.55;0.68;;;2.00;99.90;;;;;;5069519;28;20028;-77
2023/01/16 09:23:41;;;;;;;1.25;0.63;;;2.10;99.90;;;;;;5059879;28;20588;-76
2023/01/16 09:26:07;;;;;;;1.38;0.45;;;2.10;99.90;;;;;;5064438;28;20025;-76
2023/01/16 09:28:33;;;;;;;0.85;0.77;;;2.20;99.90;;;;;;5047549;28;20119;-77
2023/01/16 09:30:59;;;;;;;2.70;0.60;;;2.20;99.90;;;;;;5066620;28;20060;-76
2023/01/16 09:33:25;;;;;;;0.82;0.60;;;2.20;99.90;;;;;;5069971;28;20597;-77
2023/01/16 09:35:51;;;;;;;3.22;0.50;;;2.30;99.90;;;;;;5071404;28;20132;-77
2023/01/16 09:38:17;;;;;;;0.65;0.50;;;2.30;99.90;;;;;;5071751;28;20082;-78
2023/01/16 09:40:49;;;;;;;3.35;0.63;;;2.30;99.90;;;;;;5042912;28;20028;-77
2023/01/16 09:43:46;;;;;;;1.10;0.45;;;2.50;99.90;;;;;;5073077;28;20127;-77
2023/01/16 09:46:17;;;;;;;1.33;0.57;;;2.50;99.90;;;;;;5045339;28;20041;-78
2023/01/16 09:48:55;;;;;;;0.50;0.50;;;2.60;99.90;;;;;;5066899;28;20016;-78
2023/01/16 09:51:26;;;;;;;1.33;0.60;;;2.70;99.90;;;;;;5069119;28;20043;-72
2023/01/16 09:59:40;;;;;;;1.90;0.60;;;2.80;99.90;;;;;;5072107;28;20147;-77
2023/01/16 10:02:23;;;;;;;1.08;0.52;;;2.80;99.90;;;;;;5069387;28;20596;-76
2023/01/16 10:04:51;;;;;;;1.27;0.60;;;2.80;99.90;;;;;;5056974;28;20094;-77
2023/01/16 10:07:43;;;;;;;1.92;0.45;;;2.80;99.90;;;;;;5063671;28;20067;-77
2023/01/16 10:10:34;;;;;;;2.10;0.75;;;2.80;99.90;;;;;;5080706;28;20024;-77
2023/01/16 10:13:10;;;;;;;3.13;0.93;;;2.90;99.90;;;;;;5071603;28;20024;-77
2023/01/16 10:15:40;;;;;;;;;;;2.90;99.90;;;;;;5071479;28;20385;-76
2023/01/16 10:18:36;;;;;;;0.68;0.43;;;3.00;99.90;;;;;;5068956;28;19908;-79
2023/01/16 10:21:17;;;;;;;;;;;3.00;99.90;;;;;;5050751;28;20036;-75
2023/01/16 10:24:02;;;;;;;0.50;0.40;;;3.00;99.90;;;;;;5070223;28;20118;-78
2023/01/16 10:26:56;;;;;;;1.63;0.63;;;3.00;99.90;;;;;;5071107;28;20111;-78
2023/01/16 10:29:30;;;;;;;1.52;0.55;;;3.20;99.90;;;;;;5054052;28;20028;-77
2023/01/16 10:32:18;;;;;;;2.47;0.50;;;3.20;99.90;;;;;;5070359;28;20055;-77
2023/01/16 10:35:05;;;;;;;1.67;0.60;;;3.20;99.90;;;;;;5069507;28;20032;-77
2023/01/16 10:37:35;;;;;;;1.40;0.60;;;3.30;99.90;;;;;;5070088;28;20032;-77
2023/01/16 10:40:19;;;;;;;0.90;0.70;;;3.30;99.90;;;;;;5069970;28;20061;-77
2023/01/16 10:51:07;;;;;;;1.40;0.60;;;3.50;99.90;;;;;;5067929;28;20036;-77
2023/01/16 10:53:35;;;;;;;1.10;0.60;;;3.50;99.90;;;;;;5069707;28;20028;-77
2023/01/16 10:56:02;;;;;;;1.25;0.50;;;3.50;99.90;;;;;;5052810;28;20562;-77
2023/01/16 10:58:35;;;;;;;6.07;0.50;;;3.60;99.90;;;;;;5057346;28;20400;-77
2023/01/16 11:01:16;;;;;;;1.58;0.60;;;3.50;99.90;;;;;;5069637;28;20082;-77
2023/01/16 11:04:04;;;;;;;0.60;0.50;;;3.50;99.90;;;;;;5054867;28;20048;-77
2023/01/16 11:06:31;;;;;;;1.52;0.60;;;3.50;99.90;;;;;;5080969;28;20063;-77
2023/01/16 11:09:02;;;;;;;2.88;0.50;;;3.60;99.90;;;;;;5075555;28;20036;-77
2023/01/16 11:20:38;;;;;;;0.70;0.40;;;3.80;99.90;;;;;;5069720;28;20390;-77
2023/01/16 11:23:15;;;;;;;0.73;0.40;;;3.90;99.90;;;;;;5067529;28;20070;-76
2023/01/16 11:25:44;;;;;;;2.63;0.50;;;3.80;99.90;;;;;;5072605;28;20574;-77
2023/01/16 11:28:16;;;;;;;1.30;0.90;;;3.80;99.90;;;;;;5052604;28;20048;-77
2023/01/16 11:30:45;;;;;;;1.05;0.60;;;3.80;99.90;;;;;;5066285;28;20476;-77
2023/01/16 11:33:17;;;;;;;3.00;0.60;;;3.70;99.90;;;;;;5059792;28;20040;-77
2023/01/16 11:35:53;;;;;;;1.00;0.52;;;3.80;99.90;;;;;;5065029;28;20033;-76
2023/01/16 11:38:19;;;;;;;1.45;0.60;;;3.80;99.90;;;;;;5062341;28;20032;-77
2023/01/16 11:40:47;;;;;;;1.40;0.60;;;3.80;99.90;;;;;;5058240;28;20036;-77
2023/01/16 11:46:20;;;;;;;3.00;0.50;;;4.00;99.90;;;;;;5060201;28;20039;-77
2023/01/16 11:48:53;;;;;;;0.90;0.57;;;4.00;99.90;;;;;;5034323;28;20643;-77
2023/01/16 11:51:23;;;;;;;1.80;0.40;;;4.10;99.90;;;;;;5064134;28;20037;-77
2023/01/16 11:53:51;;;;;;;2.70;0.60;;;4.10;99.90;;;;;;5064806;28;20028;-77
2023/01/16 11:56:36;;;;;;;0.93;0.40;;;4.20;99.90;;;;;;5063931;28;20028;-77
2023/01/16 11:59:26;;;;;;;1.58;0.60;;;4.20;99.90;;;;;;5062781;28;20515;-77
2023/01/16 12:02:18;;;;;;;0.82;0.60;;;4.30;99.90;;;;;;5064699;28;20104;-77
2023/01/16 12:08:41;;;;;;;3.20;0.40;;;4.20;99.90;;;;;;5061675;28;20112;-77
2023/01/16 12:11:27;;;;;;;3.05;0.50;;;4.30;99.90;;;;;;5057692;28;20024;-77
2023/01/16 12:14:22;;;;;;;1.13;0.50;;;4.40;99.90;;;;;;5054532;28;20575;-76
2023/01/16 12:17:25;;;;;;;3.03;0.60;;;4.50;99.90;;;;;;5059999;28;20025;-76
2023/01/16 12:20:15;;;;;;;1.55;0.30;;;4.60;99.90;;;;;;5051580;28;20032;-77
2023/01/16 12:23:06;;;;;;;1.70;0.55;;;4.60;99.90;;;;;;5060027;28;20418;-76
2023/01/16 12:25:43;;;;;;;2.00;0.40;;;4.60;99.90;;;;;;5067726;28;20069;-77
2023/01/16 12:28:27;;;;;;;1.05;0.47;;;4.60;99.90;;;;;;5061395;28;20028;-76
2023/01/16 12:34:19;;;;;;;0.55;0.30;;;4.60;99.90;;;;;;5067448;28;20029;-77
2023/01/16 12:36:59;;;;;;;1.85;0.35;;;4.60;99.90;;;;;;5067853;28;20493;-75
2023/01/16 12:39:44;;;;;;;1.15;0.80;;;4.70;99.90;;;;;;5065412;28;20020;-76
2023/01/16 12:45:39;;;;;;;1.67;0.50;;;4.70;99.90;;;;;;5067249;28;20052;-76
2023/01/16 12:48:21;;;;;;;1.42;0.40;;;4.60;99.90;;;;;;5062494;28;20070;-75
2023/01/16 12:51:17;;;;;;;0.70;0.30;;;4.60;99.90;;;;;;5063172;28;20519;-77
2023/01/16 12:54:04;;;;;;;1.25;0.38;;;4.60;99.90;;;;;;5067708;28;20025;-77
2023/01/16 12:57:06;;;;;;;2.28;0.40;;;4.60;99.90;;;;;;5064889;28;20109;-77
2023/01/16 12:59:40;;;;;;;1.42;0.30;;;4.70;99.90;;;;;;5063007;28;20043;-76
2023/01/16 13:02:38;;;;;;;0.22;0.13;;;4.70;99.90;;;;;;5061681;28;20032;-75
2023/01/16 13:05:12;;;;;;;0.82;0.30;;;4.70;99.90;;;;;;5063426;28;20632;-78
2023/01/16 13:07:50;;;;;;;0.50;0.25;;;4.70;99.90;;;;;;5049910;28;20129;-76
2023/01/16 13:13:23;;;;;;;0.45;0.20;;;4.70;99.90;;;;;;5070790;28;20036;-77
2023/01/16 13:16:20;;;;;;;2.13;0.20;;;4.70;99.90;;;;;;5069491;28;20036;-77
2023/01/16 13:19:00;;;;;;;0.50;0.22;;;4.80;99.90;;;;;;5066994;28;20017;-76
2023/01/16 13:21:29;;;;;;;1.00;0.30;;;4.80;99.90;;;;;;5067007;28;20049;-79
2023/01/16 13:24:09;;;;;;;1.65;0.10;;;4.90;99.90;;;;;;5049644;28;20028;-77
2023/01/16 13:26:36;;;;;;;1.10;0.15;;;4.80;99.90;;;;;;5066640;28;20028;-78
2023/01/16 13:29:19;;;;;;;3.72;0.30;;;4.80;99.90;;;;;;5068937;28;20178;-76
2023/01/16 13:31:56;;;;;;;1.65;0.25;;;4.80;99.90;;;;;;5057044;28;20147;-78
2023/01/16 13:34:44;;;;;;;1.40;0.40;;;4.80;99.90;;;;;;5074197;28;20040;-80
2023/01/16 13:37:39;;;;;;;3.10;0.40;;;4.80;99.90;;;;;;5078577;28;20033;-79
2023/01/16 13:40:33;;;;;;;1.13;0.20;;;4.80;99.90;;;;;;5060747;28;20024;-79
2023/01/16 13:45:51;;;;;;;0.98;0.40;;;4.80;99.90;;;;;;5056655;28;20524;-80
2023/01/16 13:48:20;;;;;;;3.35;0.57;;;4.90;99.90;;;;;;5039068;28;20033;-79
2023/01/16 13:51:01;;;;;;;1.08;0.45;;;4.90;99.90;;;;;;5062003;28;20020;-80
2023/01/16 13:53:32;;;;;;;3.60;0.70;;;4.90;99.90;;;;;;5075411;28;20032;-78
2023/01/16 13:56:08;;;;;;;0.80;0.47;;;4.90;99.90;;;;;;5059796;28;20040;-78
2023/01/16 13:58:40;;;;;;;0.20;0.20;;;4.90;99.90;;;;;;5061912;28;20024;-79
2023/01/16 14:01:26;;;;;;;2.63;0.73;;;4.90;99.90;;;;;;5057501;28;20435;-79
2023/01/16 14:04:26;;;;;;;1.08;0.43;;;4.90;99.90;;;;;;5052120;28;20028;-80
2023/01/16 14:10:16;;;;;;;0.82;0.40;;;4.80;99.90;;;;;;5062150;28;20033;-80
2023/01/16 14:13:13;;;;;;;2.80;0.60;;;4.70;99.90;;;;;;5072251;28;20032;-79
2023/01/16 14:18:56;;;;;;;2.05;0.73;;;4.60;99.90;;;;;;5074493;28;20025;-80
2023/01/16 14:21:25;;;;;;;4.78;0.43;;;4.60;99.90;;;;;;5070278;28;20025;-79
2023/01/16 14:24:00;;;;;;;0.40;0.30;;;4.60;99.90;;;;;;5068125;28;20037;-80
2023/01/16 14:26:38;;;;;;;0.73;0.57;;;4.60;99.90;;;;;;5063357;28;20032;-80
2023/01/16 14:29:22;;;;;;;1.83;0.43;;;4.60;99.90;;;;;;5050751;28;20032;-80
2023/01/16 14:31:54;;;;;;;1.80;0.52;;;4.60;99.90;;;;;;5073142;28;20024;-78
2023/01/16 14:34:35;;;;;;;0.70;0.57;;;4.60;99.90;;;;;;5067801;28;20029;-80
2023/01/16 14:37:05;;;;;;;1.10;0.40;;;4.50;99.90;;;;;;5055728;28;20091;-79